Time;durP1;ratioP1;P1;durP2;ratioP2;P2;SDS_P1;SDS_P2;PMS_P1;PMS_P2;Temp;Humidity;BMP_temperature;BMP_pressure;BME280_temperature;BME280_humidity;BME280_pressure;Samples;Min_cycle;Max_cycle;Signal;HPM_P1;HPM_P2
2021/01/20 00:02:25;;;;;;;;;;;;;;;;;;5014936;28;19921;-62
2021/01/20 00:04:51;;;;;;;;;;;;;;;;;;5014315;28;19924;-62
2021/01/20 00:07:18;;;;;;;;;;;;;;;;;;5014626;28;19931;-62
2021/01/20 00:09:44;;;;;;;;;;;;;;;;;;5014918;28;20288;-62
2021/01/20 00:12:10;;;;;;;;;;;;;;;;;;5014854;28;19948;-62
2021/01/20 00:14:36;;;;;;;;;;;;;;;;;;5014786;28;19933;-62
2021/01/20 00:17:02;;;;;;;;;;;;;;;;;;5014515;28;20340;-62
2021/01/20 00:19:28;;;;;;;;;;;;;;;;;;5014517;28;19963;-62
2021/01/20 00:21:54;;;;;;;;;;;;;;;;;;5014324;28;19926;-62
2021/01/20 00:24:20;;;;;;;;;;;;;;;;;;5014502;28;19952;-62
2021/01/20 00:26:46;;;;;;;;;;;;;;;;;;5014278;28;20370;-62
2021/01/20 00:29:12;;;;;;;;;;;;;;;;;;5014388;28;19952;-63
2021/01/20 00:31:38;;;;;;;;;;;;;;;;;;5014358;28;19921;-63
2021/01/20 00:34:04;;;;;;;;;;;;;;;;;;5014251;28;19998;-62
2021/01/20 00:36:30;;;;;;;;;;;;;;;;;;5014379;28;20011;-62
2021/01/20 00:38:55;;;;;;;;;;;;;;;;;;5033288;28;20417;-62
2021/01/20 00:41:21;;;;;;;;;;;;;;;;;;5033798;28;19928;-62
2021/01/20 00:43:47;;;;;;;;;;;;;;;;;;5033911;28;19920;-62
2021/01/20 00:46:13;;;;;;;;;;;;;;;;;;5033638;28;20436;-62
2021/01/20 00:48:39;;;;;;;;;;;;;;;;;;5033816;28;19951;-62
2021/01/20 00:51:05;;;;;;;;;;;;;;;;;;5034055;28;19981;-62
2021/01/20 00:53:31;;;;;;;;;;;;;;;;;;5033765;28;20030;-62
2021/01/20 00:55:57;;;;;;;;;;;;;;;;;;5033624;28;19949;-62
2021/01/20 00:58:23;;;;;;;;;;;;;;;;;;5033868;28;19987;-62
2021/01/20 01:00:49;;;;;;;;;;;;;;;;;;5033811;28;20396;-62
2021/01/20 01:03:15;;;;;;;;;;;;;;;;;;5033941;28;19920;-62
2021/01/20 01:05:43;;;;;;;;;;;;;;;;;;5033538;28;20450;-63
2021/01/20 01:08:09;;;;;;;;;;;;;;;;;;5033570;28;19909;-62
2021/01/20 01:10:35;;;;;;;;;;;;;;;;;;5033286;28;19924;-62
2021/01/20 01:13:00;;;;;;;;;;;;;;;;;;5033566;28;19948;-62
2021/01/20 01:15:26;;;;;;;;;;;;;;;;;;5033456;28;19949;-62
2021/01/20 01:17:52;;;;;;;;;;;;;;;;;;5035919;28;19915;-62
2021/01/20 01:20:18;;;;;;;;;;;;;;;;;;5037637;28;19909;-62
2021/01/20 01:22:44;;;;;;;;;;;;;;;;;;5037655;28;19927;-62
2021/01/20 01:25:10;;;;;;;;;;;;;;;;;;5037358;28;19954;-62
2021/01/20 01:27:36;;;;;;;;;;;;;;;;;;5037430;28;19950;-62
2021/01/20 01:30:02;;;;;;;;;;;;;;;;;;5037449;28;19959;-62
2021/01/20 01:32:28;;;;;;;;;;;;;;;;;;5037342;28;19968;-62
2021/01/20 01:34:54;;;;;;;;;;;;;;;;;;5037295;28;19953;-62
2021/01/20 01:37:20;;;;;;;;;;;;;;;;;;5037512;28;20016;-62
2021/01/20 01:39:46;;;;;;;;;;;;;;;;;;5037613;28;19909;-62
2021/01/20 01:42:12;;;;;;;;;;;;;;;;;;5037220;28;19985;-62
2021/01/20 01:44:38;;;;;;;;;;;;;;;;;;5037380;28;20012;-62
2021/01/20 01:47:04;;;;;;;;;;;;;;;;;;5037443;28;19932;-62
2021/01/20 01:49:30;;;;;;;;;;;;;;;;;;5056282;22;19927;-62
2021/01/20 01:51:56;;;;;;;;;;;;;;;;;;5097440;28;19922;-63
2021/01/20 01:54:22;;;;;;;;;;;;;;;;;;5097354;28;19927;-62
2021/01/20 01:56:48;;;;;;;;;;;;;;;;;;5084011;28;19909;-63
2021/01/20 01:59:14;;;;;;;;;;;;;;;;;;5076793;28;20379;-63
2021/01/20 02:01:40;;;;;;;;;;;;;;;;;;5076814;28;19992;-63
2021/01/20 02:04:06;;;;;;;;;;;;;;;;;;5076780;28;19931;-62
2021/01/20 02:06:32;;;;;;;;;;;;;;;;;;5076943;28;19958;-63
2021/01/20 02:08:58;;;;;;;;;;;;;;;;;;5077085;28;20348;-63
2021/01/20 02:11:24;;;;;;;;;;;;;;;;;;5076611;28;20019;-63
2021/01/20 02:13:50;;;;;;;;;;;;;;;;;;5076935;28;19928;-63
2021/01/20 02:16:16;;;;;;;;;;;;;;;;;;5076577;28;19978;-63
2021/01/20 02:18:42;;;;;;;;;;;;;;;;;;5076838;28;19916;-63
2021/01/20 02:21:08;;;;;;;;;;;;;;;;;;5076584;28;19967;-62
2021/01/20 02:23:34;;;;;;;;;;;;;;;;;;5076388;28;19934;-63
2021/01/20 02:26:00;;;;;;;;;;;;;;;;;;5080784;28;19949;-62
2021/01/20 02:28:26;;;;;;;;;;;;;;;;;;5076515;28;19916;-63
2021/01/20 02:30:52;;;;;;;;;;;;;;;;;;5076696;28;20284;-63
2021/01/20 02:33:18;;;;;;;;;;;;;;;;;;5076290;28;19926;-63
2021/01/20 02:35:44;;;;;;;;;;;;;;;;;;5076276;28;19908;-63
2021/01/20 02:38:10;;;;;;;;;;;;;;;;;;5076378;28;19925;-63
2021/01/20 02:40:36;;;;;;;;;;;;;;;;;;5076222;28;19944;-63
2021/01/20 02:43:02;;;;;;;;;;;;;;;;;;5076362;28;20015;-62
2021/01/20 02:45:28;;;;;;;;;;;;;;;;;;5074777;28;20037;-63
2021/01/20 02:47:54;;;;;;;;;;;;;;;;;;5075903;28;19924;-63
2021/01/20 02:50:20;;;;;;;;;;;;;;;;;;5075912;28;19962;-62
2021/01/20 02:52:46;;;;;;;;;;;;;;;;;;5075956;28;20431;-62
2021/01/20 02:55:12;;;;;;;;;;;;;;;;;;5075921;28;19951;-62
2021/01/20 02:57:38;;;;;;;;;;;;;;;;;;5075754;28;19926;-62
2021/01/20 03:00:04;;;;;;;;;;;;;;;;;;5076127;28;20003;-62
2021/01/20 03:02:30;;;;;;;;;;;;;;;;;;5075772;28;20403;-62
2021/01/20 03:04:56;;;;;;;;;;;;;;;;;;5075993;28;19954;-63
2021/01/20 03:07:22;;;;;;;;;;;;;;;;;;5075610;28;19985;-62
2021/01/20 03:09:48;;;;;;;;;;;;;;;;;;5075899;28;19908;-63
2021/01/20 03:12:14;;;;;;;;;;;;;;;;;;5075576;28;19945;-63
2021/01/20 03:14:40;;;;;;;;;;;;;;;;;;5075531;28;19908;-62
2021/01/20 03:17:06;;;;;;;;;;;;;;;;;;5075523;28;19942;-63
2021/01/20 03:19:32;;;;;;;;;;;;;;;;;;5075454;28;19912;-63
2021/01/20 03:21:58;;;;;;;;;;;;;;;;;;5075711;28;20026;-63
2021/01/20 03:24:24;;;;;;;;;;;;;;;;;;5075136;28;20384;-63
2021/01/20 03:26:50;;;;;;;;;;;;;;;;;;5075304;28;20013;-62
2021/01/20 03:29:16;;;;;;;;;;;;;;;;;;5075843;28;19926;-63
2021/01/20 03:31:42;;;;;;;;;;;;;;;;;;5075410;28;19945;-63
2021/01/20 03:34:08;;;;;;;;;;;;;;;;;;5086878;28;19935;-63
2021/01/20 03:36:34;;;;;;;;;;;;;;;;;;5095355;28;20046;-63
2021/01/20 03:39:00;;;;;;;;;;;;;;;;;;5095285;28;19980;-63
2021/01/20 03:41:26;;;;;;;;;;;;;;;;;;5094930;28;19908;-63
2021/01/20 03:43:52;;;;;;;;;;;;;;;;;;5095199;28;19919;-63
2021/01/20 03:46:18;;;;;;;;;;;;;;;;;;5095031;28;20419;-62
2021/01/20 03:48:44;;;;;;;;;;;;;;;;;;5093883;28;20007;-63
2021/01/20 03:51:10;;;;;;;;;;;;;;;;;;5095029;28;19920;-63
2021/01/20 03:53:36;;;;;;;;;;;;;;;;;;5094920;28;20303;-63
2021/01/20 03:56:02;;;;;;;;;;;;;;;;;;5095015;28;20042;-63
2021/01/20 03:58:27;;;;;;;;;;;;;;;;;;5095122;28;20007;-63
2021/01/20 04:00:53;;;;;;;;;;;;;;;;;;5094898;28;20396;-63
2021/01/20 04:03:20;;;;;;;;;;;;;;;;;;5094942;28;19942;-63
2021/01/20 04:05:45;;;;;;;;;;;;;;;;;;5094775;28;19927;-63
2021/01/20 04:08:12;;;;;;;;;;;;;;;;;;5094831;28;19946;-63
2021/01/20 04:10:37;;;;;;;;;;;;;;;;;;5095018;28;19970;-63
2021/01/20 04:13:03;;;;;;;;;;;;;;;;;;5094711;28;20341;-62
2021/01/20 04:15:29;;;;;;;;;;;;;;;;;;5094741;28;19928;-63
2021/01/20 04:17:55;;;;;;;;;;;;;;;;;;5094721;28;19985;-63
2021/01/20 04:20:21;;;;;;;;;;;;;;;;;;5094537;28;20324;-63
2021/01/20 04:22:47;;;;;;;;;;;;;;;;;;5094715;28;19923;-63
2021/01/20 04:25:13;;;;;;;;;;;;;;;;;;5094609;28;19964;-63
2021/01/20 04:27:39;;;;;;;;;;;;;;;;;;5094539;28;20257;-63
2021/01/20 04:30:05;;;;;;;;;;;;;;;;;;5094321;28;19916;-63
2021/01/20 04:32:31;;;;;;;;;;;;;;;;;;5094637;28;19923;-63
2021/01/20 04:34:57;;;;;;;;;;;;;;;;;;5094242;28;20441;-63
2021/01/20 04:37:23;;;;;;;;;;;;;;;;;;5094169;28;19922;-63
2021/01/20 04:39:49;;;;;;;;;;;;;;;;;;5094098;28;19926;-65
2021/01/20 04:42:15;;;;;;;;;;;;;;;;;;5094512;28;19922;-63
2021/01/20 04:44:41;;;;;;;;;;;;;;;;;;5093931;28;20466;-63
2021/01/20 04:47:07;;;;;;;;;;;;;;;;;;5094088;28;19967;-64
2021/01/20 04:49:33;;;;;;;;;;;;;;;;;;5093978;28;19932;-63
2021/01/20 04:51:59;;;;;;;;;;;;;;;;;;5093440;28;20036;-63
2021/01/20 04:54:25;;;;;;;;;;;;;;;;;;5093885;28;19950;-63
2021/01/20 04:56:51;;;;;;;;;;;;;;;;;;5094360;28;19944;-63
2021/01/20 04:59:17;;;;;;;;;;;;;;;;;;5094213;28;19987;-63
2021/01/20 05:01:43;;;;;;;;;;;;;;;;;;5094749;28;19920;-63
2021/01/20 05:04:09;;;;;;;;;;;;;;;;;;5093839;28;19925;-63
2021/01/20 05:06:35;;;;;;;;;;;;;;;;;;5093896;28;19953;-63
2021/01/20 05:09:01;;;;;;;;;;;;;;;;;;5093911;28;19946;-63
2021/01/20 05:11:27;;;;;;;;;;;;;;;;;;5093753;28;19929;-63
2021/01/20 05:13:53;;;;;;;;;;;;;;;;;;5093753;28;20009;-63
2021/01/20 05:16:19;;;;;;;;;;;;;;;;;;5094160;28;19948;-63
2021/01/20 05:18:45;;;;;;;;;;;;;;;;;;5093696;28;20348;-62
2021/01/20 05:21:10;;;;;;;;;;;;;;;;;;5093755;28;19928;-63
2021/01/20 05:23:36;;;;;;;;;;;;;;;;;;5093749;28;19944;-62
2021/01/20 05:26:02;;;;;;;;;;;;;;;;;;5093562;28;20395;-62
2021/01/20 05:28:28;;;;;;;;;;;;;;;;;;5093606;28;19950;-63
2021/01/20 05:30:54;;;;;;;;;;;;;;;;;;5093585;28;19914;-62
2021/01/20 05:33:20;;;;;;;;;;;;;;;;;;5093669;28;20031;-62
2021/01/20 05:35:46;;;;;;;;;;;;;;;;;;5093757;28;19949;-63
2021/01/20 05:38:14;;;;;;;;;;;;;;;;;;5093411;28;19912;-62
2021/01/20 05:40:40;;;;;;;;;;;;;;;;;;5093558;28;20378;-63
2021/01/20 05:43:06;;;;;;;;;;;;;;;;;;5093559;28;19955;-62
2021/01/20 05:45:32;;;;;;;;;;;;;;;;;;5093459;28;19954;-62
2021/01/20 05:47:58;;;;;;;;;;;;;;;;;;5093501;28;20261;-62
2021/01/20 05:50:24;;;;;;;;;;;;;;;;;;5093287;28;20007;-62
2021/01/20 05:52:50;;;;;;;;;;;;;;;;;;5093679;28;19946;-61
2021/01/20 05:55:16;;;;;;;;;;;;;;;;;;5089362;28;19912;-62
2021/01/20 05:57:42;;;;;;;;;;;;;;;;;;5088955;28;19908;-62
2021/01/20 06:00:08;;;;;;;;;;;;;;;;;;5091216;28;20434;-62
2021/01/20 06:02:34;;;;;;;;;;;;;;;;;;5093377;28;19926;-62
2021/01/20 06:05:00;;;;;;;;;;;;;;;;;;5097302;28;19949;-62
2021/01/20 06:07:28;;;;;;;;;;;;;;;;;;5097013;28;19923;-63
2021/01/20 06:09:54;;;;;;;;;;;;;;;;;;5097025;28;19924;-63
2021/01/20 06:12:20;;;;;;;;;;;;;;;;;;5097279;28;19931;-60
2021/01/20 06:14:46;;;;;;;;;;;;;;;;;;5095063;28;20000;-63
2021/01/20 06:17:14;;;;;;;;;;;;;;;;;;5092282;28;19975;-63
2021/01/20 06:19:40;;;;;;;;;;;;;;;;;;5096823;28;19985;-63
2021/01/20 06:22:06;;;;;;;;;;;;;;;;;;5096775;28;19926;-63
2021/01/20 06:24:32;;;;;;;;;;;;;;;;;;5094968;28;19960;-62
2021/01/20 06:26:58;;;;;;;;;;;;;;;;;;5076551;28;19921;-63
2021/01/20 06:29:23;;;;;;;;;;;;;;;;;;5076647;28;19916;-63
2021/01/20 06:31:49;;;;;;;;;;;;;;;;;;5076480;28;19977;-63
2021/01/20 06:34:15;;;;;;;;;;;;;;;;;;5076477;28;19928;-62
2021/01/20 06:36:41;;;;;;;;;;;;;;;;;;5084343;28;20005;-62
2021/01/20 06:39:07;;;;;;;;;;;;;;;;;;5083580;28;20026;-62
2021/01/20 06:41:33;;;;;;;;;;;;;;;;;;5076331;28;20009;-62
2021/01/20 06:43:59;;;;;;;;;;;;;;;;;;5075893;28;19915;-62
2021/01/20 06:46:25;;;;;;;;;;;;;;;;;;5075839;28;20037;-63
2021/01/20 06:48:51;;;;;;;;;;;;;;;;;;5075966;28;20046;-62
2021/01/20 06:51:17;;;;;;;;;;;;;;;;;;5074280;28;20014;-63
2021/01/20 06:53:43;;;;;;;;;;;;;;;;;;5076135;28;19923;-62
2021/01/20 06:56:09;;;;;;;;;;;;;;;;;;5076021;28;19919;-64
2021/01/20 06:58:35;;;;;;;;;;;;;;;;;;5075173;28;19987;-64
2021/01/20 07:01:01;;;;;;;;;;;;;;;;;;5075891;28;19969;-64
2021/01/20 07:03:27;;;;;;;;;;;;;;;;;;5075941;28;19972;-62
2021/01/20 07:05:53;;;;;;;;;;;;;;;;;;5075683;28;20401;-63
2021/01/20 07:08:20;;;;;;;;;;;;;;;;;;5075625;28;19965;-63
2021/01/20 07:10:46;;;;;;;;;;;;;;;;;;5075863;28;19930;-64
2021/01/20 07:13:13;;;;;;;;;;;;;;;;;;5075670;28;20285;-62
2021/01/20 07:15:39;;;;;;;;;;;;;;;;;;5074573;28;19994;-63
2021/01/20 07:18:05;;;;;;;;;;;;;;;;;;5075457;28;19932;-64
2021/01/20 07:20:31;;;;;;;;;;;;;;;;;;5075544;28;19945;-63
2021/01/20 07:22:57;;;;;;;;;;;;;;;;;;5075190;28;20313;-63
2021/01/20 07:25:23;;;;;;;;;;;;;;;;;;5075228;28;19946;-63
2021/01/20 07:27:49;;;;;;;;;;;;;;;;;;5075557;28;19925;-62
2021/01/20 07:30:15;;;;;;;;;;;;;;;;;;5075312;28;20273;-63
2021/01/20 07:32:41;;;;;;;;;;;;;;;;;;5075462;28;19966;-63
2021/01/20 07:35:07;;;;;;;;;;;;;;;;;;5075141;28;20342;-63
2021/01/20 07:37:33;;;;;;;;;;;;;;;;;;5074343;28;19923;-62
2021/01/20 07:39:58;;;;;;;;;;;;;;;;;;5086096;28;19948;-63
2021/01/20 07:42:24;;;;;;;;;;;;;;;;;;5074922;28;19985;-63
2021/01/20 07:44:50;;;;;;;;;;;;;;;;;;5075160;28;19945;-63
2021/01/20 07:47:16;;;;;;;;;;;;;;;;;;5074764;28;19918;-63
2021/01/20 07:49:42;;;;;;;;;;;;;;;;;;5074795;28;19958;-64
2021/01/20 07:52:08;;;;;;;;;;;;;;;;;;5074832;28;19950;-64
2021/01/20 07:54:34;;;;;;;;;;;;;;;;;;5075120;28;19958;-63
2021/01/20 07:57:00;;;;;;;;;;;;;;;;;;5074669;28;19923;-63
2021/01/20 07:59:26;;;;;;;;;;;;;;;;;;5073469;28;19934;-63
2021/01/20 08:01:52;;;;;;;;;;;;;;;;;;5074698;28;19938;-62
2021/01/20 08:04:18;;;;;;;;;;;;;;;;;;5074571;28;19966;-64
2021/01/20 08:06:44;;;;;;;;;;;;;;;;;;5074573;28;19909;-63
2021/01/20 08:09:10;;;;;;;;;;;;;;;;;;5074846;28;19923;-64
2021/01/20 08:11:36;;;;;;;;;;;;;;;;;;5074669;28;19976;-63
2021/01/20 08:14:02;;;;;;;;;;;;;;;;;;5074398;28;19916;-63
2021/01/20 08:16:28;;;;;;;;;;;;;;;;;;5074388;28;20447;-63
2021/01/20 08:18:54;;;;;;;;;;;;;;;;;;5074526;28;19946;-63
2021/01/20 08:21:20;;;;;;;;;;;;;;;;;;5074276;28;19986;-63
2021/01/20 08:23:46;;;;;;;;;;;;;;;;;;5074144;28;19935;-63
2021/01/20 08:26:12;;;;;;;;;;;;;;;;;;5073979;28;19985;-64
2021/01/20 08:28:38;;;;;;;;;;;;;;;;;;5074421;28;19925;-64
2021/01/20 08:31:04;;;;;;;;;;;;;;;;;;5074253;28;20416;-64
2021/01/20 08:33:30;;;;;;;;;;;;;;;;;;5074345;28;19947;-63
2021/01/20 08:35:56;;;;;;;;;;;;;;;;;;5074105;28;20406;-63
2021/01/20 08:38:22;;;;;;;;;;;;;;;;;;5073997;28;19919;-62
2021/01/20 08:40:48;;;;;;;;;;;;;;;;;;5074322;28;20009;-63
2021/01/20 08:43:14;;;;;;;;;;;;;;;;;;5073970;28;20372;-63
2021/01/20 08:45:40;;;;;;;;;;;;;;;;;;5073803;28;20002;-63
2021/01/20 08:48:06;;;;;;;;;;;;;;;;;;5073785;28;19923;-62
2021/01/20 08:50:32;;;;;;;;;;;;;;;;;;5072501;28;20053;-62
2021/01/20 08:52:58;;;;;;;;;;;;;;;;;;5073806;28;20390;-61
2021/01/20 08:55:25;;;;;;;;;;;;;;;;;;5074240;28;19943;-60
2021/01/20 08:57:51;;;;;;;;;;;;;;;;;;5074053;28;19974;-60
2021/01/20 09:00:17;;;;;;;;;;;;;;;;;;5073906;28;19926;-62
2021/01/20 09:02:43;;;;;;;;;;;;;;;;;;5072622;28;19908;-62
2021/01/20 09:05:09;;;;;;;;;;;;;;;;;;5073853;28;19956;-62
2021/01/20 09:07:35;;;;;;;;;;;;;;;;;;5073984;28;20454;-62
2021/01/20 09:10:01;;;;;;;;;;;;;;;;;;5073643;28;20340;-63
2021/01/20 09:12:27;;;;;;;;;;;;;;;;;;5073620;28;19923;-62
2021/01/20 09:14:53;;;;;;;;;;;;;;;;;;5079145;28;19988;-62
2021/01/20 09:17:19;;;;;;;;;;;;;;;;;;5073654;28;19948;-62
2021/01/20 09:19:45;;;;;;;;;;;;;;;;;;5073568;28;20020;-62
2021/01/20 09:22:11;;;;;;;;;;;;;;;;;;5073612;28;19944;-63
2021/01/20 09:24:37;;;;;;;;;;;;;;;;;;5073370;28;19953;-62
2021/01/20 09:27:03;;;;;;;;;;;;;;;;;;5073532;28;19927;-62
2021/01/20 09:29:29;;;;;;;;;;;;;;;;;;5073460;28;20323;-61
2021/01/20 09:31:55;;;;;;;;;;;;;;;;;;5073747;28;19931;-62
2021/01/20 09:34:21;;;;;;;;;;;;;;;;;;5073416;28;19930;-63
2021/01/20 09:36:47;;;;;;;;;;;;;;;;;;5073391;28;19973;-62
2021/01/20 09:39:15;;;;;;;;;;;;;;;;;;5094933;28;19979;-61
2021/01/20 09:41:41;;;;;;;;;;;;;;;;;;5098199;28;20299;-61
2021/01/20 09:44:07;;;;;;;;;;;;;;;;;;5116177;28;19923;-63
2021/01/20 09:46:33;;;;;;;;;;;;;;;;;;5115793;28;19947;-62
2021/01/20 09:49:00;;;;;;;;;;;;;;;;;;5115863;28;19918;-62
2021/01/20 09:51:26;;;;;;;;;;;;;;;;;;5117560;27;19920;-62
2021/01/20 09:53:52;;;;;;;;;;;;;;;;;;5079917;28;20043;-62
2021/01/20 09:56:18;;;;;;;;;;;;;;;;;;5076981;28;20412;-64
2021/01/20 09:58:47;;;;;;;;;;;;;;;;;;5077355;28;19919;-63
2021/01/20 10:01:13;;;;;;;;;;;;;;;;;;5083024;28;20385;-62
2021/01/20 10:03:40;;;;;;;;;;;;;;;;;;5084935;28;19975;-63
2021/01/20 10:06:05;;;;;;;;;;;;;;;;;;5097154;28;20453;-62
2021/01/20 10:08:31;;;;;;;;;;;;;;;;;;5097074;28;19923;-62
2021/01/20 10:10:57;;;;;;;;;;;;;;;;;;5096961;28;19923;-63
2021/01/20 10:13:24;;;;;;;;;;;;;;;;;;5093615;28;19923;-62
2021/01/20 10:15:50;;;;;;;;;;;;;;;;;;5095708;28;19933;-63
2021/01/20 10:18:16;;;;;;;;;;;;;;;;;;5096762;28;19923;-62
2021/01/20 10:20:44;;;;;;;;;;;;;;;;;;5098276;28;19912;-62
2021/01/20 10:23:10;;;;;;;;;;;;;;;;;;5114588;28;19941;-62
2021/01/20 10:25:36;;;;;;;;;;;;;;;;;;5114740;28;20312;-62
2021/01/20 10:28:02;;;;;;;;;;;;;;;;;;5116396;28;19926;-62
2021/01/20 10:30:28;;;;;;;;;;;;;;;;;;5117035;28;19929;-61
2021/01/20 10:32:54;;;;;;;;;;;;;;;;;;5116948;28;19915;-62
2021/01/20 10:35:20;;;;;;;;;;;;;;;;;;5117133;28;19929;-62
2021/01/20 10:37:46;;;;;;;;;;;;;;;;;;5115326;28;19928;-61
2021/01/20 10:40:12;;;;;;;;;;;;;;;;;;5116174;28;19930;-62
2021/01/20 10:42:38;;;;;;;;;;;;;;;;;;5116198;28;19995;-63
2021/01/20 10:45:04;;;;;;;;;;;;;;;;;;5116996;28;19953;-64
2021/01/20 10:47:30;;;;;;;;;;;;;;;;;;5116889;28;20292;-63
2021/01/20 10:49:56;;;;;;;;;;;;;;;;;;5115203;28;19959;-64
2021/01/20 10:52:22;;;;;;;;;;;;;;;;;;5116620;28;19951;-63
2021/01/20 10:54:48;;;;;;;;;;;;;;;;;;5117029;28;19924;-61
2021/01/20 10:57:14;;;;;;;;;;;;;;;;;;5085834;28;20303;-63
2021/01/20 10:59:43;;;;;;;;;;;;;;;;;;5091049;28;19956;-63
2021/01/20 11:02:09;;;;;;;;;;;;;;;;;;5075986;28;19923;-63
2021/01/20 11:04:35;;;;;;;;;;;;;;;;;;5091606;28;19936;-64
2021/01/20 11:07:01;;;;;;;;;;;;;;;;;;5091872;28;19931;-62
2021/01/20 11:09:27;;;;;;;;;;;;;;;;;;5075641;28;19930;-63
2021/01/20 11:11:53;;;;;;;;;;;;;;;;;;5091524;28;19946;-63
2021/01/20 11:14:19;;;;;;;;;;;;;;;;;;5094731;28;19949;-63
2021/01/20 11:16:45;;;;;;;;;;;;;;;;;;5091441;28;20288;-61
2021/01/20 11:19:11;;;;;;;;;;;;;;;;;;5086842;28;19919;-63
2021/01/20 11:21:36;;;;;;;;;;;;;;;;;;5075451;28;19919;-64
2021/01/20 11:24:02;;;;;;;;;;;;;;;;;;5075647;28;20088;-63
2021/01/20 11:26:28;;;;;;;;;;;;;;;;;;5075182;28;20312;-67
2021/01/20 11:28:54;;;;;;;;;;;;;;;;;;5075439;28;19919;-63
2021/01/20 11:31:20;;;;;;;;;;;;;;;;;;5075555;28;19967;-63
2021/01/20 11:33:46;;;;;;;;;;;;;;;;;;5075510;28;19948;-61
2021/01/20 11:36:12;;;;;;;;;;;;;;;;;;5075367;28;19934;-62
2021/01/20 11:38:38;;;;;;;;;;;;;;;;;;5075232;28;20295;-63
2021/01/20 11:41:04;;;;;;;;;;;;;;;;;;5085467;28;19923;-61
2021/01/20 11:43:30;;;;;;;;;;;;;;;;;;5113507;28;19907;-61
2021/01/20 11:45:56;;;;;;;;;;;;;;;;;;5094596;28;20001;-61
2021/01/20 11:48:22;;;;;;;;;;;;;;;;;;5083256;28;19923;-62
2021/01/20 11:50:48;;;;;;;;;;;;;;;;;;5083719;28;19954;-62
2021/01/20 11:53:14;;;;;;;;;;;;;;;;;;5084258;28;19919;-63
2021/01/20 11:55:40;;;;;;;;;;;;;;;;;;5085494;28;20308;-61
2021/01/20 11:58:06;;;;;;;;;;;;;;;;;;5079850;28;19931;-60
2021/01/20 12:00:32;;;;;;;;;;;;;;;;;;5074176;28;19927;-60
2021/01/20 12:02:58;;;;;;;;;;;;;;;;;;5074883;28;19914;-61
2021/01/20 12:05:24;;;;;;;;;;;;;;;;;;5076621;28;20400;-62
2021/01/20 12:07:50;;;;;;;;;;;;;;;;;;5083190;28;19925;-61
2021/01/20 12:10:16;;;;;;;;;;;;;;;;;;5084122;28;19912;-61
2021/01/20 12:12:42;;;;;;;;;;;;;;;;;;5094079;28;20383;-63
2021/01/20 12:15:08;;;;;;;;;;;;;;;;;;5094828;28;19976;-63
2021/01/20 12:17:34;;;;;;;;;;;;;;;;;;5086616;28;19947;-62
2021/01/20 12:20:00;;;;;;;;;;;;;;;;;;5089017;28;19976;-61
2021/01/20 12:22:26;;;;;;;;;;;;;;;;;;5086712;28;20333;-61
2021/01/20 12:24:52;;;;;;;;;;;;;;;;;;5082646;28;19959;-61
2021/01/20 12:27:18;;;;;;;;;;;;;;;;;;5084761;28;19940;-62
2021/01/20 12:29:44;;;;;;;;;;;;;;;;;;5079650;28;20276;-63
2021/01/20 12:32:10;;;;;;;;;;;;;;;;;;5074144;28;19921;-63
2021/01/20 12:34:36;;;;;;;;;;;;;;;;;;5074084;28;19945;-63
2021/01/20 12:37:02;;;;;;;;;;;;;;;;;;5074117;28;19952;-63
2021/01/20 12:39:28;;;;;;;;;;;;;;;;;;5073934;28;19947;-64
2021/01/20 12:41:54;;;;;;;;;;;;;;;;;;5073959;28;19908;-64
2021/01/20 12:44:21;;;;;;;;;;;;;;;;;;5074178;28;19929;-64
2021/01/20 12:46:47;;;;;;;;;;;;;;;;;;5073571;28;19964;-64
2021/01/20 12:49:13;;;;;;;;;;;;;;;;;;5073814;28;19954;-64
2021/01/20 12:51:39;;;;;;;;;;;;;;;;;;5073640;28;20012;-64
2021/01/20 12:54:05;;;;;;;;;;;;;;;;;;5073853;28;19999;-63
2021/01/20 12:56:31;;;;;;;;;;;;;;;;;;5073807;28;20397;-63
2021/01/20 12:58:57;;;;;;;;;;;;;;;;;;5073806;28;19927;-63
2021/01/20 13:01:23;;;;;;;;;;;;;;;;;;5073731;28;19989;-62
2021/01/20 13:03:49;;;;;;;;;;;;;;;;;;5073765;28;20377;-62
2021/01/20 13:06:15;;;;;;;;;;;;;;;;;;5073662;28;19950;-62
2021/01/20 13:08:41;;;;;;;;;;;;;;;;;;5073639;28;19927;-63
2021/01/20 13:11:07;;;;;;;;;;;;;;;;;;5073955;28;19919;-62
2021/01/20 13:13:33;;;;;;;;;;;;;;;;;;5072602;28;20442;-63
2021/01/20 13:15:58;;;;;;;;;;;;;;;;;;5073635;28;19919;-63
2021/01/20 13:18:25;;;;;;;;;;;;;;;;;;5073588;28;19945;-62
2021/01/20 13:20:51;;;;;;;;;;;;;;;;;;5073716;28;20000;-63
2021/01/20 13:23:17;;;;;;;;;;;;;;;;;;5073737;28;19979;-63
2021/01/20 13:25:43;;;;;;;;;;;;;;;;;;5073406;28;20415;-62
2021/01/20 13:28:09;;;;;;;;;;;;;;;;;;5073471;28;19921;-62
2021/01/20 13:30:35;;;;;;;;;;;;;;;;;;5073449;28;19947;-62
2021/01/20 13:33:01;;;;;;;;;;;;;;;;;;5073305;28;19932;-62
2021/01/20 13:35:27;;;;;;;;;;;;;;;;;;5073794;28;19949;-62
2021/01/20 13:37:53;;;;;;;;;;;;;;;;;;5073258;28;20514;-62
2021/01/20 13:40:19;;;;;;;;;;;;;;;;;;5079541;28;19923;-61
2021/01/20 13:42:45;;;;;;;;;;;;;;;;;;5085249;28;19925;-61
2021/01/20 13:45:11;;;;;;;;;;;;;;;;;;5093653;28;19944;-61
2021/01/20 13:47:37;;;;;;;;;;;;;;;;;;5093514;28;20314;-62
2021/01/20 13:50:03;;;;;;;;;;;;;;;;;;5093278;28;20015;-62
2021/01/20 13:52:29;;;;;;;;;;;;;;;;;;5093438;28;19923;-62
2021/01/20 13:54:55;;;;;;;;;;;;;;;;;;5093454;28;19931;-62
2021/01/20 13:57:21;;;;;;;;;;;;;;;;;;5087406;28;19923;-60
2021/01/20 13:59:47;;;;;;;;;;;;;;;;;;5085510;28;20402;-60
2021/01/20 14:02:13;;;;;;;;;;;;;;;;;;5083396;28;20013;-62
2021/01/20 14:04:39;;;;;;;;;;;;;;;;;;5084343;28;19927;-62
2021/01/20 14:07:05;;;;;;;;;;;;;;;;;;5092928;28;19930;-62
2021/01/20 14:09:31;;;;;;;;;;;;;;;;;;5092016;28;19947;-59
2021/01/20 14:11:57;;;;;;;;;;;;;;;;;;5093206;28;19924;-62
2021/01/20 14:14:23;;;;;;;;;;;;;;;;;;5093096;28;19931;-63
2021/01/20 14:16:49;;;;;;;;;;;;;;;;;;5093407;28;19924;-62
2021/01/20 14:19:15;;;;;;;;;;;;;;;;;;5093162;28;20342;-63
2021/01/20 14:21:41;;;;;;;;;;;;;;;;;;5093045;28;19909;-62
2021/01/20 14:24:07;;;;;;;;;;;;;;;;;;5078916;28;19944;-61
2021/01/20 14:26:33;;;;;;;;;;;;;;;;;;5085561;28;19940;-61
2021/01/20 14:28:59;;;;;;;;;;;;;;;;;;5076223;28;19927;-61
2021/01/20 14:31:25;;;;;;;;;;;;;;;;;;5075108;28;20045;-61
2021/01/20 14:33:51;;;;;;;;;;;;;;;;;;5076844;28;20407;-62
2021/01/20 14:36:17;;;;;;;;;;;;;;;;;;5083557;28;20157;-61
2021/01/20 14:38:43;;;;;;;;;;;;;;;;;;5087548;28;20317;-62
2021/01/20 14:41:09;;;;;;;;;;;;;;;;;;5085536;28;19983;-63
2021/01/20 14:43:35;;;;;;;;;;;;;;;;;;5089140;28;19933;-62
2021/01/20 14:46:01;;;;;;;;;;;;;;;;;;5079623;28;20347;-61
2021/01/20 14:48:27;;;;;;;;;;;;;;;;;;5093654;28;19933;-62
2021/01/20 14:50:53;;;;;;;;;;;;;;;;;;5089823;28;19960;-63
2021/01/20 14:53:19;;;;;;;;;;;;;;;;;;5084537;28;19926;-62
2021/01/20 14:55:44;;;;;;;;;;;;;;;;;;5093233;28;20361;-62
2021/01/20 14:58:10;;;;;;;;;;;;;;;;;;5096258;28;19920;-63
2021/01/20 15:00:36;;;;;;;;;;;;;;;;;;5095990;28;20419;-63
2021/01/20 15:03:02;;;;;;;;;;;;;;;;;;5095887;28;19992;-62
2021/01/20 15:05:28;;;;;;;;;;;;;;;;;;5092909;28;19954;-62
2021/01/20 15:07:54;;;;;;;;;;;;;;;;;;5094755;28;20445;-63
2021/01/20 15:10:20;;;;;;;;;;;;;;;;;;5080476;28;19929;-60
2021/01/20 15:12:46;;;;;;;;;;;;;;;;;;5086320;28;20384;-60
2021/01/20 15:15:12;;;;;;;;;;;;;;;;;;5094163;28;19929;-61
2021/01/20 15:17:38;;;;;;;;;;;;;;;;;;5089484;28;19923;-62
2021/01/20 15:20:05;;;;;;;;;;;;;;;;;;5085046;28;19941;-63
2021/01/20 15:22:31;;;;;;;;;;;;;;;;;;5086148;28;19949;-62
2021/01/20 15:24:57;;;;;;;;;;;;;;;;;;5086959;28;19948;-61
2021/01/20 15:27:23;;;;;;;;;;;;;;;;;;5075271;28;19942;-62
2021/01/20 15:29:49;;;;;;;;;;;;;;;;;;5075477;28;19943;-62
2021/01/20 15:32:15;;;;;;;;;;;;;;;;;;5074088;28;19925;-63
2021/01/20 15:34:42;;;;;;;;;;;;;;;;;;5075192;28;19997;-63
2021/01/20 15:37:08;;;;;;;;;;;;;;;;;;5074321;28;19923;-63
2021/01/20 15:39:34;;;;;;;;;;;;;;;;;;5074963;28;20364;-63
2021/01/20 15:42:00;;;;;;;;;;;;;;;;;;5075315;28;19930;-62
2021/01/20 15:44:26;;;;;;;;;;;;;;;;;;5075630;28;19984;-63
2021/01/20 15:46:52;;;;;;;;;;;;;;;;;;5084697;28;19950;-64
2021/01/20 15:49:18;;;;;;;;;;;;;;;;;;5090379;28;19935;-62
2021/01/20 15:51:44;;;;;;;;;;;;;;;;;;5080069;28;19927;-62
2021/01/20 15:54:10;;;;;;;;;;;;;;;;;;5074746;28;19908;-62
2021/01/20 15:56:36;;;;;;;;;;;;;;;;;;5074778;28;19920;-62
2021/01/20 15:59:02;;;;;;;;;;;;;;;;;;5074612;28;19927;-62
2021/01/20 16:01:28;;;;;;;;;;;;;;;;;;5087115;28;19976;-62
2021/01/20 16:03:54;;;;;;;;;;;;;;;;;;5090441;28;19943;-63
2021/01/20 16:06:22;;;;;;;;;;;;;;;;;;5092730;28;19952;-62
2021/01/20 16:08:48;;;;;;;;;;;;;;;;;;5093017;28;19993;-63
2021/01/20 16:11:14;;;;;;;;;;;;;;;;;;5093046;28;19924;-63
2021/01/20 16:13:40;;;;;;;;;;;;;;;;;;5092896;28;20451;-63
2021/01/20 16:16:06;;;;;;;;;;;;;;;;;;5092637;28;19946;-63
2021/01/20 16:18:32;;;;;;;;;;;;;;;;;;5092915;28;19933;-63
2021/01/20 16:20:58;;;;;;;;;;;;;;;;;;5092833;28;20345;-63
2021/01/20 16:23:24;;;;;;;;;;;;;;;;;;5092693;28;19939;-62
2021/01/20 16:25:50;;;;;;;;;;;;;;;;;;5093742;28;19950;-63
2021/01/20 16:28:16;;;;;;;;;;;;;;;;;;5094514;28;20027;-62
2021/01/20 16:30:46;;;;;;;;;;;;;;;;;;5094622;28;19954;-62
2021/01/20 16:33:12;;;;;;;;;;;;;;;;;;5094335;28;19923;-63
2021/01/20 16:35:38;;;;;;;;;;;;;;;;;;5090259;28;19936;-63
2021/01/20 16:38:04;;;;;;;;;;;;;;;;;;5092658;28;19922;-63